createdAt,value
2023-09-17T00:02:05.530Z,101225.97
2023-09-17T00:04:33.513Z,101232.41
2023-09-17T00:07:01.362Z,101220.69
2023-09-17T00:09:29.333Z,101224.63
2023-09-17T00:11:57.238Z,101227.91
2023-09-17T00:14:26.757Z,101228.25
2023-09-17T00:16:55.222Z,101223.66
2023-09-17T00:19:23.196Z,101229.75
2023-09-17T00:21:52.802Z,101225.81
2023-09-17T00:24:20.707Z,101231.81
2023-09-17T00:26:48.740Z,101226.72
2023-09-17T00:29:16.612Z,101231.81
2023-09-17T00:31:45.902Z,101232.16
2023-09-17T00:34:13.884Z,101229.63
2023-09-17T00:36:41.731Z,101230.81
2023-09-17T00:39:10.144Z,101233.19
2023-09-17T00:41:38.028Z,101238.63
2023-09-17T00:44:06.371Z,101228.09
2023-09-17T00:46:34.402Z,101237.59
2023-09-17T00:49:04.125Z,101228.41
2023-09-17T00:51:32.147Z,101229.44
2023-09-17T00:54:01.152Z,101229.94
2023-09-17T00:56:29.098Z,101230.16
2023-09-17T00:58:58.663Z,101228.44
2023-09-17T01:01:27.269Z,101232.47
2023-09-17T01:03:56.700Z,101223.47
2023-09-17T01:06:26.629Z,101215.16
2023-09-17T01:08:55.657Z,101221.63
2023-09-17T01:11:23.807Z,101223.84
2023-09-17T01:14:08.964Z,101219.41
2023-09-17T01:16:37.006Z,101218.94
2023-09-17T01:19:05.993Z,101216.03
2023-09-17T01:21:40.895Z,101225.38
2023-09-17T01:24:22.490Z,101223.03
2023-09-17T01:27:00.601Z,101220.81
2023-09-17T01:29:33.275Z,101222.66
2023-09-17T01:32:01.181Z,101229.97
2023-09-17T01:34:31.464Z,101229.81
2023-09-17T01:37:03.647Z,101227.41
2023-09-17T01:39:36.018Z,101231.31
2023-09-17T01:42:06.491Z,101222.31
2023-09-17T01:44:36.071Z,101220.97
2023-09-17T01:47:05.920Z,101228.25
2023-09-17T01:49:35.199Z,101221.31
2023-09-17T01:52:03.737Z,101224.19
2023-09-17T01:54:32.367Z,101223.34
2023-09-17T01:57:00.536Z,101228.78
2023-09-17T01:59:29.813Z,101225.72
2023-09-17T02:01:57.856Z,101237.41
2023-09-17T02:04:25.843Z,101233.34
2023-09-17T02:06:55.106Z,101226.38
2023-09-17T02:09:23.382Z,101228.59
2023-09-17T02:11:51.834Z,101227.41
2023-09-17T02:14:19.691Z,101234.19
2023-09-17T02:16:48.917Z,101230.97
2023-09-17T02:19:16.881Z,101242.50
2023-09-17T02:21:45.128Z,101234.22
2023-09-17T02:24:13.871Z,101242.31
2023-09-17T02:26:41.744Z,101236.19
2023-09-17T02:29:09.793Z,101236.91
2023-09-17T02:31:37.829Z,101233.97
2023-09-17T02:34:07.242Z,101235.88
2023-09-17T02:36:37.601Z,101231.63
2023-09-17T02:39:07.305Z,101223.47
2023-09-17T02:41:35.237Z,101226.03
2023-09-17T02:44:03.892Z,101240.78
2023-09-17T02:46:31.882Z,101235.19
2023-09-17T02:48:59.981Z,101229.22
2023-09-17T02:51:29.670Z,101228.41
2023-09-17T02:53:57.613Z,101232.94
2023-09-17T02:56:26.249Z,101222.44
2023-09-17T02:58:54.291Z,101221.72
2023-09-17T03:01:24.448Z,101223.97
2023-09-17T03:03:53.014Z,101215.19
2023-09-17T03:06:21.621Z,101224.81
2023-09-17T03:08:50.919Z,101228.53
2023-09-17T03:11:18.888Z,101227.97
2023-09-17T03:13:48.144Z,101228.66
2023-09-17T03:16:17.668Z,101233.00
2023-09-17T03:18:47.367Z,101228.28
2023-09-17T03:21:15.424Z,101229.38
2023-09-17T03:23:43.322Z,101225.66
2023-09-17T03:26:12.725Z,101234.97
2023-09-17T03:28:40.734Z,101234.13
2023-09-17T03:31:08.944Z,101228.22
2023-09-17T03:33:38.131Z,101230.41
2023-09-17T03:36:06.633Z,101233.69
2023-09-17T03:38:34.878Z,101226.41
2023-09-17T03:41:03.858Z,101226.28
2023-09-17T03:43:35.161Z,101232.41
2023-09-17T03:46:05.187Z,101227.00
2023-09-17T03:48:33.866Z,101229.81
2023-09-17T03:51:03.813Z,101228.28
2023-09-17T03:53:33.014Z,101220.84
2023-09-17T03:56:01.614Z,101231.84
2023-09-17T03:58:33.013Z,101231.31
2023-09-17T04:01:00.961Z,101232.69
2023-09-17T04:03:29.127Z,101242.53
2023-09-17T04:05:57.007Z,101248.25
2023-09-17T04:08:25.492Z,101245.44
2023-09-17T04:10:55.808Z,101243.81
2023-09-17T04:13:23.946Z,101245.47
2023-09-17T04:15:53.399Z,101249.91
2023-09-17T04:18:21.259Z,101243.69
2023-09-17T04:20:50.027Z,101245.84
2023-09-17T04:23:18.288Z,101252.31
2023-09-17T04:25:46.475Z,101256.03
2023-09-17T04:28:14.579Z,101263.16
2023-09-17T04:30:42.682Z,101255.69
2023-09-17T04:33:11.953Z,101265.09
2023-09-17T04:35:40.259Z,101263.72
2023-09-17T04:38:08.912Z,101263.00
2023-09-17T04:40:37.040Z,101266.03
2023-09-17T04:43:07.878Z,101265.38
2023-09-17T04:45:37.580Z,101267.97
2023-09-17T04:48:17.369Z,101267.81
2023-09-17T04:50:48.126Z,101269.63
2023-09-17T04:53:17.139Z,101276.91
2023-09-17T04:55:47.041Z,101264.09
2023-09-17T04:58:17.216Z,101269.88
2023-09-17T05:00:48.335Z,101273.75
2023-09-17T05:03:17.875Z,101277.44
2023-09-17T05:05:47.487Z,101286.06
2023-09-17T05:08:18.137Z,101278.97
2023-09-17T05:10:46.744Z,101278.31
2023-09-17T05:13:14.650Z,101285.50
2023-09-17T05:15:42.874Z,101279.44
2023-09-17T05:18:12.137Z,101277.59
2023-09-17T05:20:46.523Z,101279.28
2023-09-17T05:23:14.523Z,101275.78
2023-09-17T05:25:42.810Z,101280.50
2023-09-17T05:28:12.468Z,101280.97
2023-09-17T05:30:40.573Z,101285.91
2023-09-17T05:33:08.795Z,101284.25
2023-09-17T05:35:37.877Z,101278.53
2023-09-17T05:38:07.570Z,101281.97
2023-09-17T05:40:36.352Z,101281.97
2023-09-17T05:43:05.430Z,101279.78
2023-09-17T05:45:34.031Z,101286.22
2023-09-17T05:48:02.778Z,101286.75
2023-09-17T05:50:30.895Z,101296.53
2023-09-17T05:52:58.911Z,101299.25
2023-09-17T05:55:30.056Z,101295.06
2023-09-17T05:57:58.786Z,101299.69
2023-09-17T06:00:27.485Z,101299.38
2023-09-17T06:02:55.747Z,101309.88
2023-09-17T06:05:23.905Z,101317.16
2023-09-17T06:07:51.790Z,101314.97
2023-09-17T06:10:19.870Z,101309.06
2023-09-17T06:12:49.285Z,101312.28
2023-09-17T06:15:17.526Z,101300.41
2023-09-17T06:17:46.250Z,101305.84
2023-09-17T06:20:14.236Z,101309.91
2023-09-17T06:22:42.381Z,101313.38
2023-09-17T06:25:10.896Z,101317.78
2023-09-17T06:27:38.781Z,101315.38
2023-09-17T06:30:10.612Z,101315.59
2023-09-17T06:32:38.942Z,101331.91
2023-09-17T06:35:07.888Z,101330.88
2023-09-17T06:37:35.907Z,101330.34
2023-09-17T06:40:04.582Z,101330.34
2023-09-17T06:42:33.233Z,101332.03
2023-09-17T06:45:02.311Z,101322.88
2023-09-17T06:47:31.732Z,101335.28
2023-09-17T06:49:59.955Z,101332.88
2023-09-17T06:52:28.618Z,101344.28
2023-09-17T06:54:56.681Z,101332.88
2023-09-17T06:57:24.540Z,101338.47
2023-09-17T06:59:52.408Z,101334.91
2023-09-17T07:02:20.351Z,101338.09
2023-09-17T07:04:50.121Z,101333.34
2023-09-17T07:07:18.117Z,101336.06
2023-09-17T07:09:46.460Z,101337.44
2023-09-17T07:12:14.516Z,101328.53
2023-09-17T07:14:42.561Z,101329.56
2023-09-17T07:17:10.474Z,101345.53
2023-09-17T07:19:38.405Z,101340.72
2023-09-17T07:22:13.535Z,101337.66
2023-09-17T07:24:41.606Z,101337.31
2023-09-17T07:27:09.671Z,101339.88
2023-09-17T07:29:38.660Z,101335.91
2023-09-17T07:32:07.096Z,101344.50
2023-09-17T07:34:35.703Z,101346.06
2023-09-17T07:37:05.765Z,101339.94
2023-09-17T07:39:35.266Z,101337.22
2023-09-17T07:42:03.575Z,101334.41
2023-09-17T07:44:31.457Z,101333.13
2023-09-17T07:46:59.960Z,101328.78
2023-09-17T07:49:29.700Z,101336.88
2023-09-17T07:51:58.467Z,101335.25
2023-09-17T07:54:27.288Z,101338.50
2023-09-17T07:56:56.583Z,101338.81
2023-09-17T07:59:24.566Z,101333.13
2023-09-17T08:01:52.700Z,101338.00
2023-09-17T08:04:20.833Z,101340.34
2023-09-17T08:06:50.319Z,101345.00
2023-09-17T08:09:18.649Z,101344.28
2023-09-17T08:11:46.643Z,101335.75
2023-09-17T08:14:16.079Z,101340.84
2023-09-17T08:16:44.120Z,101331.38
2023-09-17T08:19:12.796Z,101336.78
2023-09-17T08:21:40.714Z,101330.22
2023-09-17T08:24:09.095Z,101326.78
2023-09-17T08:26:36.986Z,101325.84
2023-09-17T08:29:06.415Z,101329.78
2023-09-17T08:31:35.963Z,101330.06
2023-09-17T08:34:04.744Z,101329.59
2023-09-17T08:36:33.671Z,101323.84
2023-09-17T08:39:02.468Z,101332.97
2023-09-17T08:41:30.527Z,101342.00
2023-09-17T08:43:58.593Z,101325.44
2023-09-17T08:46:28.131Z,101332.88
2023-09-17T08:48:57.518Z,101329.69
2023-09-17T08:51:26.858Z,101333.88
2023-09-17T08:54:04.423Z,101323.41
2023-09-17T08:56:33.843Z,101319.03
2023-09-17T08:59:05.707Z,101308.97
2023-09-17T09:01:37.449Z,101312.91
2023-09-17T09:04:08.107Z,101309.06
2023-09-17T09:06:37.613Z,101307.34
2023-09-17T09:09:06.761Z,101309.00
2023-09-17T09:11:35.848Z,101316.59
2023-09-17T09:14:06.137Z,101307.91
2023-09-17T09:16:37.756Z,101303.91
2023-09-17T09:19:08.914Z,101307.34
2023-09-17T09:21:37.126Z,101315.69
2023-09-17T09:24:05.374Z,101316.13
2023-09-17T09:26:35.549Z,101301.09
2023-09-17T09:29:05.087Z,101307.47
2023-09-17T09:31:33.653Z,101300.34
2023-09-17T09:34:02.601Z,101296.94
2023-09-17T09:36:34.239Z,101302.09
2023-09-17T09:39:03.536Z,101302.00
2023-09-17T09:41:34.488Z,101309.81
2023-09-17T09:44:03.100Z,101295.88
2023-09-17T09:46:34.880Z,101292.41
2023-09-17T09:49:03.387Z,101298.31
2023-09-17T09:51:33.086Z,101304.56
2023-09-17T09:54:01.179Z,101298.16
2023-09-17T09:56:30.318Z,101287.56
2023-09-17T09:58:58.762Z,101295.53
2023-09-17T10:01:29.469Z,101290.03
2023-09-17T10:04:00.314Z,101288.38
2023-09-17T10:06:31.503Z,101286.19
2023-09-17T10:09:02.035Z,101284.97
2023-09-17T10:11:31.274Z,101279.22
2023-09-17T10:14:04.192Z,101273.25
2023-09-17T10:16:32.877Z,101278.66
2023-09-17T10:19:01.182Z,101271.09
2023-09-17T10:21:30.081Z,101271.72
2023-09-17T10:23:59.525Z,101259.91
2023-09-17T10:26:33.880Z,101262.28
2023-09-17T10:29:02.580Z,101258.84
2023-09-17T10:31:32.176Z,101255.06
2023-09-17T10:34:02.611Z,101256.94
2023-09-17T10:36:32.638Z,101249.25
2023-09-17T10:39:01.175Z,101274.28
2023-09-17T10:41:33.913Z,101262.47
2023-09-17T10:44:02.949Z,101257.88
2023-09-17T10:46:33.262Z,101261.34
2023-09-17T10:49:02.678Z,101264.72
2023-09-17T10:51:30.821Z,101272.66
2023-09-17T10:53:58.992Z,101273.38
2023-09-17T10:56:27.852Z,101261.81
2023-09-17T10:58:57.204Z,101261.13
2023-09-17T11:01:30.542Z,101269.34
2023-09-17T11:04:03.714Z,101264.38
2023-09-17T11:06:33.949Z,101260.06
2023-09-17T11:09:02.684Z,101265.16
2023-09-17T11:11:31.978Z,101260.56
2023-09-17T11:14:01.700Z,101268.22
2023-09-17T11:16:31.792Z,101265.09
2023-09-17T11:19:07.674Z,101260.06
2023-09-17T11:21:36.921Z,101264.22
2023-09-17T11:24:09.107Z,101273.00
2023-09-17T11:26:40.236Z,101268.81
2023-09-17T11:29:11.938Z,101271.31
2023-09-17T11:32:05.324Z,101269.19
2023-09-17T11:34:35.284Z,101269.63
2023-09-17T11:37:04.512Z,101264.28
2023-09-17T11:39:34.615Z,101268.94
2023-09-17T11:42:06.785Z,101258.63
2023-09-17T11:44:38.827Z,101263.38
2023-09-17T11:47:08.061Z,101262.25
2023-09-17T11:49:36.742Z,101262.34
2023-09-17T11:52:11.334Z,101264.03
2023-09-17T11:54:49.294Z,101267.00
2023-09-17T11:57:24.183Z,101266.53
2023-09-17T11:59:53.603Z,101267.00
2023-09-17T12:02:22.031Z,101257.91
2023-09-17T12:04:51.854Z,101274.09
2023-09-17T12:07:20.017Z,101268.91
2023-09-17T12:09:59.996Z,101262.81
2023-09-17T12:12:28.414Z,101258.53
2023-09-17T12:14:57.912Z,101259.00
2023-09-17T12:17:25.902Z,101260.06
2023-09-17T12:20:00.756Z,101260.41
2023-09-17T12:22:30.004Z,101256.56
2023-09-17T12:25:04.024Z,101255.03
2023-09-17T12:27:36.349Z,101262.06
2023-09-17T12:30:09.755Z,101254.00
2023-09-17T12:32:38.191Z,101253.00
2023-09-17T12:35:08.423Z,101255.84
2023-09-17T12:37:36.625Z,101249.09
2023-09-17T12:40:08.263Z,101259.13
2023-09-17T12:42:37.030Z,101259.13
2023-09-17T12:45:07.496Z,101258.28
2023-09-17T12:47:35.639Z,101259.66
2023-09-17T12:50:05.829Z,101242.63
2023-09-17T12:52:33.816Z,101249.06
2023-09-17T12:55:02.235Z,101246.78
2023-09-17T12:57:32.218Z,101248.13
2023-09-17T13:00:00.335Z,101245.66
2023-09-17T13:02:34.721Z,101241.81
2023-09-17T13:05:02.955Z,101248.31
2023-09-17T13:07:32.820Z,101244.13
2023-09-17T13:10:01.830Z,101247.44
2023-09-17T13:12:30.006Z,101235.25
2023-09-17T13:14:58.734Z,101240.97
2023-09-17T13:17:30.307Z,101241.84
2023-09-17T13:20:00.068Z,101240.72
2023-09-17T13:22:28.417Z,101236.44
2023-09-17T13:24:58.453Z,101245.00
2023-09-17T13:27:26.388Z,101227.63
2023-09-17T13:29:54.902Z,101232.16
2023-09-17T13:32:23.138Z,101226.03
2023-09-17T13:34:51.913Z,101223.44
2023-09-17T13:37:21.437Z,101225.06
2023-09-17T13:39:51.087Z,101224.19
2023-09-17T13:42:19.351Z,101219.28
2023-09-17T13:44:47.221Z,101218.16
2023-09-17T13:47:15.188Z,101211.22
2023-09-17T13:49:43.660Z,101211.63
2023-09-17T13:52:11.735Z,101211.25
2023-09-17T13:54:43.259Z,101213.13
2023-09-17T13:57:11.286Z,101207.41
2023-09-17T13:59:39.146Z,101217.75
2023-09-17T14:02:07.120Z,101200.31
2023-09-17T14:04:35.513Z,101200.41
2023-09-17T14:07:03.826Z,101201.94
2023-09-17T14:09:31.756Z,101196.38
2023-09-17T14:12:00.969Z,101206.56
2023-09-17T14:14:28.846Z,101200.53
2023-09-17T14:16:56.817Z,101201.91
2023-09-17T14:19:24.739Z,101206.72
2023-09-17T14:21:52.615Z,101200.09
2023-09-17T14:24:20.487Z,101197.75
2023-09-17T14:26:48.401Z,101195.84
2023-09-17T14:29:17.709Z,101203.31
2023-09-17T14:31:45.738Z,101193.66
2023-09-17T14:34:13.661Z,101189.06
2023-09-17T14:36:41.551Z,101185.75
2023-09-17T14:39:12.006Z,101196.22
2023-09-17T14:41:40.563Z,101199.41
2023-09-17T14:44:08.854Z,101196.31
2023-09-17T14:46:39.580Z,101189.84
2023-09-17T14:49:08.252Z,101192.16
2023-09-17T14:51:36.256Z,101197.50
2023-09-17T14:54:04.239Z,101191.31
2023-09-17T14:56:32.423Z,101189.13
2023-09-17T14:59:00.301Z,101190.66
2023-09-17T15:01:56.824Z,101184.75
2023-09-17T15:04:17.454Z,101182.78
2023-09-17T15:06:45.500Z,101180.00
2023-09-17T15:09:13.396Z,101179.16
2023-09-17T15:11:41.755Z,101189.09
2023-09-17T15:14:09.736Z,101174.66
2023-09-17T15:16:38.582Z,101170.19
2023-09-17T15:19:07.232Z,101180.63
2023-09-17T15:21:36.620Z,101177.56
2023-09-17T15:24:05.878Z,101176.72
2023-09-17T15:26:33.796Z,101184.00
2023-09-17T15:29:01.727Z,101181.31
2023-09-17T15:31:29.655Z,101178.22
2023-09-17T15:33:57.724Z,101178.47
2023-09-17T15:36:25.875Z,101163.84
2023-09-17T15:38:55.140Z,101162.56
2023-09-17T15:41:23.597Z,101166.22
2023-09-17T15:43:51.592Z,101178.88
2023-09-17T15:46:19.731Z,101177.88
2023-09-17T15:48:47.955Z,101171.22
2023-09-17T15:51:15.840Z,101174.50
2023-09-17T15:53:43.778Z,101178.53
2023-09-17T15:56:13.030Z,101183.81
2023-09-17T15:58:40.965Z,101191.31
2023-09-17T16:01:08.999Z,101179.56
2023-09-17T16:03:37.023Z,101184.13
2023-09-17T16:06:05.731Z,101183.06
2023-09-17T16:08:33.599Z,101177.56
2023-09-17T16:11:01.508Z,101185.72
2023-09-17T16:13:30.799Z,101185.19
2023-09-17T16:15:58.690Z,101180.16
2023-09-17T16:18:26.575Z,101193.25
2023-09-17T16:20:54.646Z,101189.81
2023-09-17T16:23:22.619Z,101179.03
2023-09-17T16:25:50.619Z,101185.50
2023-09-17T16:28:17.866Z,101182.31
2023-09-17T16:30:47.092Z,101192.69
2023-09-17T16:33:15.088Z,101191.22
2023-09-17T16:35:43.104Z,101187.72
2023-09-17T16:38:11.089Z,101180.16
2023-09-17T16:40:39.052Z,101187.91
2023-09-17T16:43:09.864Z,101181.38
2023-09-17T16:45:39.539Z,101186.84
2023-09-17T16:48:09.030Z,101176.19
2023-09-17T16:50:36.960Z,101178.59
2023-09-17T16:53:05.231Z,101169.81
2023-09-17T16:55:35.053Z,101176.53
2023-09-17T16:58:03.539Z,101175.25
2023-09-17T17:00:31.444Z,101168.78
2023-09-17T17:02:59.522Z,101160.59
2023-09-17T17:05:28.887Z,101171.81
2023-09-17T17:07:57.859Z,101169.50
2023-09-17T17:10:27.017Z,101177.56
2023-09-17T17:12:54.908Z,101172.94
2023-09-17T17:15:22.961Z,101171.28
2023-09-17T17:17:50.970Z,101177.41
2023-09-17T17:20:19.121Z,101180.63
2023-09-17T17:22:49.556Z,101179.38
2023-09-17T17:25:18.437Z,101177.09
2023-09-17T17:27:47.322Z,101179.00
2023-09-17T17:30:15.473Z,101189.34
2023-09-17T17:32:43.963Z,101195.28
2023-09-17T17:35:12.639Z,101194.00
2023-09-17T17:37:40.905Z,101190.59
2023-09-17T17:40:11.081Z,101185.75
2023-09-17T17:42:38.968Z,101178.59
2023-09-17T17:45:08.407Z,101191.72
2023-09-17T17:47:36.355Z,101184.50
2023-09-17T17:50:04.602Z,101189.16
2023-09-17T17:52:33.167Z,101196.13
2023-09-17T17:55:01.061Z,101199.50
2023-09-17T17:57:30.402Z,101192.91
2023-09-17T17:59:58.312Z,101195.88
2023-09-17T18:02:26.845Z,101195.88
2023-09-17T18:04:56.419Z,101194.66
2023-09-17T18:07:24.437Z,101193.34
2023-09-17T18:09:52.559Z,101185.72
2023-09-17T18:12:20.476Z,101194.59
2023-09-17T18:14:50.945Z,101190.81
2023-09-17T18:17:18.989Z,101184.88
2023-09-17T18:19:46.877Z,101195.84
2023-09-17T18:22:13.766Z,101189.13
2023-09-17T18:24:41.630Z,101182.34
2023-09-17T18:27:09.600Z,101184.88
2023-09-17T18:29:37.740Z,101188.66
2023-09-17T18:32:07.184Z,101184.22
2023-09-17T18:34:35.111Z,101173.94
2023-09-17T18:37:03.526Z,101181.81
2023-09-17T18:39:32.339Z,101186.06
2023-09-17T18:42:00.310Z,101183.56
2023-09-17T18:44:28.591Z,101183.06
2023-09-17T18:46:56.700Z,101185.19
2023-09-17T18:49:25.984Z,101180.53
2023-09-17T18:51:54.600Z,101183.84
2023-09-17T18:54:22.736Z,101181.78
2023-09-17T18:56:50.616Z,101185.72
2023-09-17T18:59:18.608Z,101191.78
2023-09-17T19:01:46.617Z,101193.47
2023-09-17T19:04:14.568Z,101187.56
2023-09-17T19:06:43.783Z,101195.09
2023-09-17T19:09:11.682Z,101191.13
2023-09-17T19:11:39.550Z,101190.03
2023-09-17T19:14:07.438Z,101181.69
2023-09-17T19:16:35.365Z,101178.28
2023-09-17T19:19:04.217Z,101182.09
2023-09-17T19:21:32.108Z,101191.50
2023-09-17T19:24:01.366Z,101174.56
2023-09-17T19:26:30.260Z,101174.19
2023-09-17T19:29:00.091Z,101173.72
2023-09-17T19:31:28.025Z,101159.72
2023-09-17T19:33:55.870Z,101169.59
2023-09-17T19:36:24.207Z,101169.41
2023-09-17T19:38:53.380Z,101165.19
2023-09-17T19:41:22.711Z,101158.44
2023-09-17T19:43:51.445Z,101151.94
2023-09-17T19:46:20.920Z,101156.59
2023-09-17T19:48:49.847Z,101159.91
2023-09-17T19:51:18.011Z,101150.22
2023-09-17T19:53:45.917Z,101149.94
2023-09-17T19:56:13.925Z,101146.38
2023-09-17T19:58:43.240Z,101147.66
2023-09-17T20:01:13.010Z,101138.47
2023-09-17T20:03:40.981Z,101136.78
2023-09-17T20:06:08.886Z,101134.06
2023-09-17T20:08:36.753Z,101133.69
2023-09-17T20:11:04.664Z,101138.28
2023-09-17T20:13:32.907Z,101136.13
2023-09-17T20:16:02.164Z,101136.59
2023-09-17T20:18:31.531Z,101138.41
2023-09-17T20:20:59.859Z,101146.00
2023-09-17T20:23:28.370Z,101136.66
2023-09-17T20:25:56.338Z,101124.91
2023-09-17T20:28:24.234Z,101134.22
2023-09-17T20:30:53.204Z,101135.84
2023-09-17T20:33:22.887Z,101137.00
2023-09-17T20:35:51.201Z,101137.22
2023-09-17T20:38:19.645Z,101135.25
2023-09-17T20:40:47.668Z,101130.00
2023-09-17T20:43:15.855Z,101126.03
2023-09-17T20:45:43.824Z,101126.00
2023-09-17T20:48:11.797Z,101122.94
2023-09-17T20:50:42.690Z,101124.81
2023-09-17T20:53:11.702Z,101124.72
2023-09-17T20:55:39.926Z,101121.41
2023-09-17T20:58:07.786Z,101124.78
2023-09-17T21:00:35.675Z,101125.53
2023-09-17T21:03:03.809Z,101120.53
2023-09-17T21:05:31.741Z,101123.88
2023-09-17T21:08:01.692Z,101118.97
2023-09-17T21:10:29.844Z,101122.47
2023-09-17T21:12:59.801Z,101124.25
2023-09-17T21:15:27.680Z,101125.22
2023-09-17T21:17:55.636Z,101121.78
2023-09-17T21:20:23.634Z,101124.09
2023-09-17T21:22:51.904Z,101115.91
2023-09-17T21:25:21.189Z,101117.16
2023-09-17T21:27:49.161Z,101125.28
2023-09-17T21:30:17.249Z,101118.81
2023-09-17T21:32:45.997Z,101133.97
2023-09-17T21:35:14.674Z,101112.69
2023-09-17T21:37:42.796Z,101109.81
2023-09-17T21:40:12.507Z,101109.63
2023-09-17T21:42:41.793Z,101097.66
2023-09-17T21:45:10.313Z,101108.53
2023-09-17T21:47:38.303Z,101105.16
2023-09-17T21:50:07.474Z,101096.97
2023-09-17T21:52:35.996Z,101092.53
2023-09-17T21:55:04.372Z,101098.19
2023-09-17T21:57:32.415Z,101097.81
2023-09-17T22:00:01.918Z,101104.44
2023-09-17T22:02:32.467Z,101102.16
2023-09-17T22:05:00.518Z,101094.34
2023-09-17T22:07:28.653Z,101088.00
2023-09-17T22:09:56.548Z,101089.16
2023-09-17T22:12:24.422Z,101091.03
2023-09-17T22:14:53.517Z,101071.88
2023-09-17T22:17:22.863Z,101078.06
2023-09-17T22:19:50.926Z,101079.56
2023-09-17T22:22:18.865Z,101078.09
2023-09-17T22:24:46.757Z,101079.94
2023-09-17T22:27:16.156Z,101074.97
2023-09-17T22:29:44.297Z,101081.47
2023-09-17T22:32:12.177Z,101068.47
2023-09-17T22:34:41.901Z,101069.63
2023-09-17T22:37:10.008Z,101059.81
2023-09-17T22:39:40.224Z,101071.97
2023-09-17T22:42:08.127Z,101061.56
2023-09-17T22:44:38.871Z,101073.38
2023-09-17T22:47:08.097Z,101069.38
2023-09-17T22:49:36.924Z,101067.91
2023-09-17T22:52:07.228Z,101065.47
2023-09-17T22:54:35.220Z,101063.91
2023-09-17T22:57:03.076Z,101062.72
2023-09-17T22:59:31.053Z,101073.69
2023-09-17T23:01:59.412Z,101064.41
2023-09-17T23:04:27.396Z,101060.75
2023-09-17T23:06:55.311Z,101059.38
2023-09-17T23:09:24.604Z,101054.00
2023-09-17T23:11:52.550Z,101063.28
2023-09-17T23:14:20.425Z,101054.50
2023-09-17T23:16:49.193Z,101061.72
2023-09-17T23:19:17.321Z,101060.16
2023-09-17T23:21:45.819Z,101059.03
2023-09-17T23:24:15.295Z,101060.97
2023-09-17T23:26:44.700Z,101054.59
2023-09-17T23:29:12.621Z,101049.81
2023-09-17T23:31:41.307Z,101057.94
2023-09-17T23:34:09.315Z,101056.72
2023-09-17T23:36:37.182Z,101052.03
2023-09-17T23:39:05.723Z,101047.81
2023-09-17T23:41:33.628Z,101036.72
2023-09-17T23:44:03.019Z,101025.94
2023-09-17T23:46:33.027Z,101032.34
2023-09-17T23:49:02.821Z,101025.72
2023-09-17T23:51:31.230Z,101025.56
2023-09-17T23:53:59.356Z,101024.72
2023-09-17T23:56:27.328Z,101027.34
2023-09-17T23:58:55.530Z,101019.44
